Time;durP1;ratioP1;P1;durP2;ratioP2;P2;SDS_P1;SDS_P2;PMS_P1;PMS_P2;Temp;Humidity;BMP_temperature;BMP_pressure;BME280_temperature;BME280_humidity;BME280_pressure;Samples;Min_cycle;Max_cycle;Signal;HPM_P1;HPM_P2
2022/04/26 03:36:59;;;;;;;3.92;3.63;;;;;;;5.24;100.00;92576.19;2106974;28;20500;-84
2022/04/26 03:38:00;;;;;;;4.63;4.07;;;;;;;5.35;100.00;92578.72;2096187;28;20149;-86
2022/04/26 03:39:01;;;;;;;3.97;3.67;;;;;;;5.34;100.00;92585.94;2102232;28;20095;-84
2022/04/26 03:40:03;;;;;;;4.78;4.28;;;;;;;5.27;100.00;92586.03;2100334;28;20381;-84
2022/04/26 03:41:04;;;;;;;4.55;4.10;;;;;;;5.23;100.00;92593.25;2104614;28;20024;-84
2022/04/26 03:42:06;;;;;;;5.43;4.38;;;;;;;5.11;100.00;92583.91;2098382;28;20459;-84
2022/04/26 03:43:06;;;;;;;4.43;4.03;;;;;;;5.13;100.00;92586.16;2099322;28;20016;-85
2022/04/26 03:44:07;;;;;;;4.68;4.28;;;;;;;5.10;100.00;92581.66;2104858;28;20080;-86
2022/04/26 03:45:09;;;;;;;4.03;3.72;;;;;;;5.12;100.00;92584.66;2088538;28;20484;-84
2022/04/26 03:46:09;;;;;;;4.78;4.38;;;;;;;5.11;100.00;92572.56;2092723;28;20021;-85
2022/04/26 03:47:11;;;;;;;6.85;4.38;;;;;;;5.08;100.00;92568.03;2087978;28;20075;-85
2022/04/26 03:48:12;;;;;;;4.85;4.45;;;;;;;5.05;100.00;92572.25;2088837;28;20669;-86
2022/04/26 03:49:12;;;;;;;5.93;4.20;;;;;;;5.06;100.00;92576.38;2093162;28;20074;-84
2022/04/26 03:50:13;;;;;;;4.57;4.22;;;;;;;5.11;100.00;92573.31;2095890;28;20377;-84
2022/04/26 03:51:14;;;;;;;5.43;4.63;;;;;;;5.14;100.00;92577.81;2095319;28;20025;-85
2022/04/26 03:52:15;;;;;;;6.82;4.63;;;;;;;5.18;100.00;92580.41;2093471;28;20029;-83
2022/04/26 03:53:16;;;;;;;5.35;4.72;;;;;;;5.18;100.00;92583.84;2095515;28;20024;-84
2022/04/26 03:54:21;;;;;;;5.20;4.70;;;;;;;5.14;100.00;92583.13;2097900;28;20120;-85
2022/04/26 03:55:24;;;;;;;6.43;4.93;;;;;;;5.16;100.00;92588.00;2100216;27;20627;-85
2022/04/26 03:56:25;;;;;;;7.03;4.20;;;;;;;5.20;100.00;92583.44;2099020;28;20024;-86
2022/04/26 03:57:26;;;;;;;5.25;4.78;;;;;;;5.12;100.00;92589.94;2091667;28;20013;-85
2022/04/26 03:58:28;;;;;;;4.70;4.18;;;;;;;5.12;100.00;92582.00;2088958;28;20025;-85
2022/04/26 03:59:29;;;;;;;4.95;4.45;;;;;;;5.15;100.00;92583.88;2091940;28;20429;-85
2022/04/26 04:00:30;;;;;;;4.70;4.30;;;;;;;5.16;100.00;92580.06;2087750;28;20021;-84
2022/04/26 04:01:32;;;;;;;4.60;4.20;;;;;;;5.13;100.00;92581.59;2094991;28;20150;-85
2022/04/26 04:02:33;;;;;;;5.20;4.60;;;;;;;5.08;100.00;92584.69;2095721;28;20017;-86
2022/04/26 04:03:38;;;;;;;4.60;4.07;;;;;;;5.07;100.00;92577.88;2094023;28;20031;-83
2022/04/26 04:04:39;;;;;;;9.65;5.00;;;;;;;5.09;100.00;92591.47;2092148;28;20405;-85
2022/04/26 04:05:42;;;;;;;5.80;4.60;;;;;;;5.10;100.00;92587.69;2095869;28;20023;-85
2022/04/26 04:06:43;;;;;;;4.57;4.15;;;;;;;5.10;100.00;92586.94;2103903;28;20496;-84
2022/04/26 04:07:44;;;;;;;5.07;4.22;;;;;;;5.08;100.00;92578.63;2095964;28;20086;-85
2022/04/26 04:08:45;;;;;;;4.63;4.22;;;;;;;5.10;100.00;92584.31;2097056;28;20492;-84
2022/04/26 04:09:46;;;;;;;4.45;4.05;;;;;;;5.12;100.00;92587.28;2097931;28;20044;-84
2022/04/26 04:10:47;;;;;;;4.55;4.15;;;;;;;5.09;100.00;92596.03;2099558;28;20066;-85
2022/04/26 04:11:48;;;;;;;7.35;4.50;;;;;;;5.05;100.00;92586.22;2097928;28;20106;-85
2022/04/26 04:12:49;;;;;;;4.55;4.15;;;;;;;5.00;100.00;92588.53;2095587;28;20039;-85
2022/04/26 04:13:50;;;;;;;5.97;3.85;;;;;;;5.03;100.00;92583.22;2090872;28;20033;-85
2022/04/26 04:14:51;;;;;;;4.75;4.35;;;;;;;5.06;100.00;92586.97;2091428;28;20025;-84
2022/04/26 04:15:52;;;;;;;5.00;4.20;;;;;;;5.11;100.00;92585.81;2101693;28;20012;-86
2022/04/26 04:17:01;;;;;;;4.65;4.25;;;;;;;5.09;100.00;92580.13;2104639;28;20054;-85
2022/04/26 04:18:03;;;;;;;4.07;3.78;;;;;;;5.05;100.00;92577.53;2088471;28;20016;-84
2022/04/26 04:19:19;;;;;;;4.30;3.95;;;;;;;5.00;100.00;92578.72;2085688;28;20701;-85
2022/04/26 04:20:20;;;;;;;4.40;4.00;;;;;;;5.03;100.00;92580.56;2090090;28;20028;-84
2022/04/26 04:21:21;;;;;;;4.88;4.47;;;;;;;5.09;100.00;92580.13;2081524;28;20478;-84
2022/04/26 04:22:22;;;;;;;4.30;4.00;;;;;;;5.10;100.00;92579.75;2103300;28;20020;-84
2022/04/26 04:23:23;;;;;;;4.85;4.35;;;;;;;5.03;100.00;92580.56;2102120;28;20025;-83
2022/04/26 04:24:24;;;;;;;4.80;4.25;;;;;;;4.96;100.00;92585.16;2106418;28;20024;-85
2022/04/26 04:25:25;;;;;;;5.63;4.28;;;;;;;4.97;100.00;92589.34;2094581;28;20017;-85
2022/04/26 04:26:26;;;;;;;5.28;4.10;;;;;;;5.02;100.00;92592.31;2096467;28;20082;-85
2022/04/26 04:27:31;;;;;;;7.63;4.25;;;;;;;5.06;100.00;92589.63;2098038;28;20060;-83
2022/04/26 04:28:35;;;;;;;6.05;4.85;;;;;;;5.05;100.00;92588.13;2103137;28;20017;-85
2022/04/26 04:29:39;;;;;;;5.90;4.55;;;;;;;5.03;100.00;92604.41;2100032;27;20020;-85
2022/04/26 04:30:40;;;;;;;6.13;4.53;;;;;;;5.03;100.00;92593.81;2099806;28;20050;-85
2022/04/26 04:31:45;;;;;;;7.43;5.18;;;;;;;5.03;100.00;92595.69;2106772;28;20028;-85
2022/04/26 04:32:46;;;;;;;7.30;4.53;;;;;;;5.02;100.00;92594.97;2098061;28;20027;-87
2022/04/26 04:33:47;;;;;;;4.75;4.35;;;;;;;5.03;100.00;92599.09;2098006;28;20035;-83
2022/04/26 04:34:48;;;;;;;5.15;4.07;;;;;;;5.05;100.00;92602.13;2089921;28;20025;-84
2022/04/26 04:35:49;;;;;;;5.72;4.95;;;;;;;5.03;100.00;92598.34;2088612;28;20031;-85
2022/04/26 04:36:50;;;;;;;5.40;4.90;;;;;;;5.04;100.00;92599.84;2096022;28;20028;-84
2022/04/26 04:37:51;;;;;;;5.95;4.88;;;;;;;5.05;100.00;92599.47;2103065;28;20028;-85
2022/04/26 04:38:52;;;;;;;7.50;5.32;;;;;;;5.00;100.00;92599.13;2097882;28;20119;-84
2022/04/26 04:39:52;;;;;;;5.20;4.80;;;;;;;4.93;100.00;92599.97;2106398;28;20070;-84
2022/04/26 04:40:53;;;;;;;10.00;6.00;;;;;;;4.93;100.00;92599.97;2097800;28;20028;-83
2022/04/26 04:41:54;;;;;;;6.88;4.70;;;;;;;4.82;100.00;92594.00;2089087;28;20017;-85
2022/04/26 04:42:56;;;;;;;6.15;5.60;;;;;;;4.82;100.00;92604.59;2092652;28;20406;-83
2022/04/26 04:43:57;;;;;;;6.45;4.57;;;;;;;4.81;100.00;92603.09;2097783;28;20040;-84
2022/04/26 04:44:58;;;;;;;5.85;4.15;;;;;;;4.89;100.00;92604.53;2099705;28;20035;-84
2022/04/26 04:45:59;;;;;;;5.20;4.70;;;;;;;4.91;100.00;92599.59;2114670;28;20031;-86
2022/04/26 04:47:00;;;;;;;6.72;5.22;;;;;;;4.93;100.00;92607.16;2097746;28;20063;-86
2022/04/26 04:48:01;;;;;;;6.47;3.90;;;;;;;4.93;100.00;92601.84;2089745;28;20029;-84
2022/04/26 04:49:02;;;;;;;4.93;4.53;;;;;;;5.01;100.00;92600.66;2097400;28;20678;-84
2022/04/26 04:50:05;;;;;;;9.43;5.70;;;;;;;4.94;100.00;92598.81;2092940;28;20035;-85
2022/04/26 04:51:08;;;;;;;5.18;4.78;;;;;;;4.98;100.00;92612.03;2097364;28;20046;-85
2022/04/26 04:52:09;;;;;;;4.78;4.22;;;;;;;4.96;100.00;92609.78;2089130;28;20508;-84
2022/04/26 04:53:11;;;;;;;4.43;4.03;;;;;;;4.97;100.00;92610.53;2089326;28;20043;-85
2022/04/26 04:54:11;;;;;;;4.60;4.20;;;;;;;4.96;100.00;92609.00;2106238;28;20038;-86
2022/04/26 04:55:13;;;;;;;8.70;4.40;;;;;;;5.01;100.00;92605.94;2106156;28;20020;-86
2022/04/26 04:56:14;;;;;;;6.60;3.92;;;;;;;5.08;100.00;92605.13;2089525;28;20134;-84
2022/04/26 04:57:15;;;;;;;7.70;4.03;;;;;;;5.04;100.00;92603.25;2097727;28;20032;-85
2022/04/26 04:58:18;;;;;;;4.22;3.72;;;;;;;4.95;100.00;92610.16;2097810;28;20385;-84
2022/04/26 04:59:19;;;;;;;4.25;3.50;;;;;;;4.97;100.00;92611.28;2089894;28;20108;-85
2022/04/26 05:00:20;;;;;;;4.25;3.95;;;;;;;4.99;100.00;92613.53;2095868;28;20795;-84
2022/04/26 05:01:21;;;;;;;5.90;4.20;;;;;;;5.04;100.00;92619.13;2094731;28;20031;-86
2022/04/26 05:02:22;;;;;;;5.10;4.40;;;;;;;5.28;100.00;92619.31;2092718;28;20028;-90
2022/04/26 05:03:23;;;;;;;7.80;5.93;;;;;;;5.27;100.00;92620.47;2090360;28;20021;-87
2022/04/26 05:04:24;;;;;;;6.95;5.72;;;;;;;5.18;100.00;92617.50;2098148;28;20028;-85
2022/04/26 05:05:25;;;;;;;5.82;5.32;;;;;;;5.14;100.00;92627.41;2088085;28;20078;-85
2022/04/26 05:06:26;;;;;;;6.30;4.63;;;;;;;5.15;100.00;92620.97;2092376;28;20603;-84
2022/04/26 05:07:29;;;;;;;6.57;5.80;;;;;;;5.19;100.00;92621.69;2091380;28;20020;-82
2022/04/26 05:08:30;;;;;;;6.95;6.25;;;;;;;5.18;100.00;92626.22;2087408;28;20028;-82
2022/04/26 05:09:31;;;;;;;7.47;6.88;;;;;;;5.22;100.00;92623.53;2090929;28;20058;-83
2022/04/26 05:10:33;;;;;;;5.80;5.30;;;;;;;5.13;100.00;92628.53;2086099;28;20127;-83
2022/04/26 05:11:34;;;;;;;6.60;6.00;;;;;;;5.09;100.00;92631.22;2101951;28;20084;-85
2022/04/26 05:12:35;;;;;;;8.00;7.30;;;;;;;5.13;100.00;92634.56;2095270;28;20048;-82
2022/04/26 05:13:37;;;;;;;8.73;7.78;;;;;;;5.09;100.00;92625.91;2095708;28;20024;-85
2022/04/26 05:14:40;;;;;;;12.77;7.90;;;;;;;5.12;100.00;92627.03;2087538;28;20028;-83
2022/04/26 05:15:44;;;;;;;9.00;6.28;;;;;;;5.09;100.00;92628.56;2091074;28;20037;-84
2022/04/26 05:16:45;;;;;;;5.15;4.75;;;;;;;5.05;100.00;92628.63;2092782;28;20818;-84
2022/04/26 05:17:46;;;;;;;5.80;5.00;;;;;;;5.08;100.00;92626.31;2095511;28;20028;-84
2022/04/26 05:18:47;;;;;;;5.35;4.93;;;;;;;5.01;100.00;92627.13;2088051;28;20025;-85
2022/04/26 05:19:48;;;;;;;4.97;4.60;;;;;;;5.09;100.00;92635.75;2087983;28;20067;-83
2022/04/26 05:20:49;;;;;;;5.40;4.90;;;;;;;5.09;100.00;92625.91;2087883;28;20017;-85
2022/04/26 05:21:50;;;;;;;5.22;4.72;;;;;;;5.05;100.00;92628.63;2098807;28;20027;-84
2022/04/26 05:25:50;;;;;;;4.50;4.03;;;;;;;5.13;100.00;92642.53;2071875;28;20033;-83
2022/04/26 05:26:51;;;;;;;5.47;4.78;;;;;;;5.21;100.00;92641.31;2071226;28;20041;-85
2022/04/26 05:27:52;;;;;;;5.25;4.75;;;;;;;5.19;100.00;92642.88;2063387;28;20169;-84
2022/04/26 05:28:53;;;;;;;5.07;4.32;;;;;;;5.19;100.00;92638.31;2055189;28;20117;-83
2022/04/26 05:30:04;;;;;;;7.82;5.32;;;;;;;5.25;100.00;92636.00;2061540;28;20031;-84
2022/04/26 05:31:06;;;;;;;5.57;5.07;;;;;;;5.20;100.00;92642.47;2052830;28;20892;-84
2022/04/26 05:32:07;;;;;;;6.38;5.82;;;;;;;5.26;100.00;92637.50;2097115;28;20020;-84
2022/04/26 05:33:08;;;;;;;6.80;6.20;;;;;;;5.23;100.00;92640.94;2096781;28;20035;-84
2022/04/26 05:34:11;;;;;;;8.70;7.70;;;;;;;5.15;100.00;92628.91;2096167;28;20129;-85
2022/04/26 05:35:12;;;;;;;11.45;6.95;;;;;;;5.15;100.00;92639.50;2096296;28;20811;-85
2022/04/26 05:36:13;;;;;;;6.00;5.50;;;;;;;5.24;100.00;92645.09;2082637;28;20494;-84
2022/04/26 05:37:14;;;;;;;6.47;5.03;;;;;;;5.33;100.00;92641.97;2093788;28;20028;-84
2022/04/26 05:38:16;;;;;;;5.60;5.10;;;;;;;5.27;100.00;92639.75;2092992;28;20017;-83
2022/04/26 05:39:17;;;;;;;6.20;5.65;;;;;;;5.25;100.00;92636.00;2103557;28;20562;-84
2022/04/26 05:40:18;;;;;;;5.15;4.65;;;;;;;5.23;100.00;92643.59;2105445;28;20069;-84
2022/04/26 05:41:19;;;;;;;5.65;5.13;;;;;;;5.33;100.00;92640.06;2096392;28;20542;-82
2022/04/26 05:42:20;;;;;;;7.93;7.13;;;;;;;5.39;100.00;92648.34;2096336;28;20021;-84
2022/04/26 05:43:22;;;;;;;8.52;6.32;;;;;;;5.32;100.00;92646.53;2113194;28;20032;-84
2022/04/26 05:44:23;;;;;;;6.50;5.90;;;;;;;5.32;100.00;92649.19;2093031;28;20025;-86
2022/04/26 05:45:27;;;;;;;6.15;5.55;;;;;;;5.46;100.00;92648.28;2096259;28;20023;-84
2022/04/26 05:46:27;;;;;;;6.00;5.00;;;;;;;5.47;100.00;92653.19;2095665;28;20094;-82
2022/04/26 05:47:28;;;;;;;4.82;4.38;;;;;;;5.62;100.00;92653.81;2096506;28;20070;-85
2022/04/26 05:48:30;;;;;;;5.40;4.85;;;;;;;5.54;100.00;92652.38;2088489;28;20785;-85
2022/04/26 05:49:30;;;;;;;4.78;4.38;;;;;;;5.47;100.00;92652.44;2104114;28;20024;-84
2022/04/26 05:50:32;;;;;;;5.30;4.80;;;;;;;5.44;100.00;92653.22;2104635;28;20028;-85
2022/04/26 05:51:32;;;;;;;7.60;4.13;;;;;;;5.37;100.00;92648.75;2096789;28;20032;-83
2022/04/26 05:52:33;;;;;;;7.07;4.47;;;;;;;5.39;100.00;92651.00;2096352;28;20024;-85
2022/04/26 05:53:35;;;;;;;4.68;4.28;;;;;;;5.42;100.00;92653.63;2088114;28;20029;-85
2022/04/26 05:54:36;;;;;;;5.53;5.03;;;;;;;5.41;100.00;92646.06;2096843;28;20054;-85
2022/04/26 05:55:38;;;;;;;4.50;4.10;;;;;;;5.45;100.00;92650.19;2096721;28;20026;-85
2022/04/26 05:56:39;;;;;;;4.53;4.13;;;;;;;5.47;100.00;92647.13;2097133;28;20021;-84
2022/04/26 05:57:42;;;;;;;5.88;5.28;;;;;;;5.38;100.00;92638.91;2100584;28;20045;-86
2022/04/26 05:58:43;;;;;;;7.28;5.88;;;;;;;5.35;100.00;92643.06;2103712;28;20024;-86
2022/04/26 05:59:44;;;;;;;7.50;6.70;;;;;;;5.33;100.00;92644.63;2102021;28;20023;-84
2022/04/26 06:00:45;;;;;;;8.00;7.20;;;;;;;5.42;100.00;92644.91;2104967;28;20069;-84
2022/04/26 06:01:46;;;;;;;7.50;6.80;;;;;;;5.46;100.00;92645.63;2087715;28;20025;-83
2022/04/26 06:02:49;;;;;;;7.05;6.45;;;;;;;5.47;100.00;92641.84;2116874;27;20102;-86
2022/04/26 06:03:49;;;;;;;7.65;6.85;;;;;;;5.55;100.00;92643.25;2113134;28;20020;-82
2022/04/26 06:04:50;;;;;;;7.03;6.32;;;;;;;5.63;100.00;92643.94;2096580;28;20025;-84
2022/04/26 06:05:55;;;;;;;8.02;6.70;;;;;;;5.68;100.00;92638.22;2096264;28;20085;-83
2022/04/26 06:06:56;;;;;;;6.80;6.20;;;;;;;5.70;100.00;92634.00;2089588;28;20028;-84
2022/04/26 06:07:57;;;;;;;6.78;6.18;;;;;;;5.79;100.00;92646.78;2090860;28;20396;-84
2022/04/26 06:08:58;;;;;;;6.63;6.03;;;;;;;5.74;100.00;92642.66;2088403;28;20025;-84
2022/04/26 06:09:59;;;;;;;7.50;6.32;;;;;;;5.86;100.00;92643.31;2092762;28;20055;-87
2022/04/26 06:11:00;;;;;;;6.75;6.10;;;;;;;5.79;100.00;92644.13;2094524;28;20074;-85
2022/04/26 06:12:03;;;;;;;6.72;6.03;;;;;;;5.85;100.00;92642.56;2103312;28;20020;-80
2022/04/26 06:13:04;;;;;;;8.60;6.80;;;;;;;5.84;100.00;92637.63;2094968;28;20401;-85
2022/04/26 06:14:06;;;;;;;7.13;6.43;;;;;;;5.95;100.00;92633.00;2086333;28;20037;-84
2022/04/26 06:15:08;;;;;;;8.77;6.47;;;;;;;5.80;100.00;92635.03;2093752;28;20682;-85
2022/04/26 06:16:09;;;;;;;7.65;6.88;;;;;;;5.78;100.00;92632.78;2095872;28;20028;-82
2022/04/26 06:17:10;;;;;;;7.20;6.13;;;;;;;5.91;100.00;92629.59;2088098;28;20025;-85
2022/04/26 06:18:11;;;;;;;7.20;6.60;;;;;;;5.88;100.00;92633.03;2092176;28;20033;-85
2022/04/26 06:19:12;;;;;;;6.47;5.88;;;;;;;5.97;100.00;92641.28;2103349;28;20039;-85
2022/04/26 06:20:13;;;;;;;6.78;6.13;;;;;;;6.00;100.00;92637.84;2096484;28;20029;-84
2022/04/26 06:21:15;;;;;;;6.80;6.20;;;;;;;5.93;100.00;92645.91;2089255;28;20021;-83
2022/04/26 06:22:16;;;;;;;7.95;7.20;;;;;;;5.93;100.00;92645.91;2096300;28;20040;-85
2022/04/26 06:23:17;;;;;;;7.82;7.03;;;;;;;5.78;100.00;92651.34;2097484;28;20056;-85
2022/04/26 06:24:19;;;;;;;6.70;6.10;;;;;;;5.95;100.00;92635.66;2095874;28;20672;-84
2022/04/26 06:25:20;;;;;;;7.15;6.45;;;;;;;5.93;100.00;92641.38;2079368;28;20025;-84
2022/04/26 06:26:21;;;;;;;6.60;5.97;;;;;;;6.16;100.00;92631.97;2087786;28;20896;-83
2022/04/26 06:27:22;;;;;;;8.30;7.50;;;;;;;6.07;100.00;92629.06;2087893;28;20556;-87
2022/04/26 06:28:23;;;;;;;7.40;6.70;;;;;;;5.97;100.00;92626.16;2087618;28;20072;-85
2022/04/26 06:29:24;;;;;;;7.72;6.88;;;;;;;5.91;100.00;92616.34;2087570;28;20021;-83
2022/04/26 06:30:25;;;;;;;7.88;7.07;;;;;;;5.92;100.00;92626.56;2095986;28;20350;-85
2022/04/26 06:31:26;;;;;;;7.53;6.63;;;;;;;6.26;100.00;92626.53;2087831;28;20028;-84
2022/04/26 06:32:28;;;;;;;7.53;6.47;;;;;;;6.11;100.00;92638.50;2096102;28;20524;-84
2022/04/26 06:33:29;;;;;;;7.22;6.47;;;;;;;6.02;100.00;92633.66;2095292;28;20025;-85
2022/04/26 06:34:30;;;;;;;9.15;7.00;;;;;;;6.16;100.00;92629.34;2088220;28;20120;-86
2022/04/26 06:35:31;;;;;;;8.00;6.25;;;;;;;6.27;100.00;92635.97;2095273;28;20028;-86
2022/04/26 06:36:32;;;;;;;6.88;5.80;;;;;;;6.41;100.00;92629.75;2095155;28;20021;-86
2022/04/26 06:37:33;;;;;;;6.90;6.22;;;;;;;6.14;100.00;92621.00;2095086;28;20055;-85
2022/04/26 06:38:34;;;;;;;6.70;6.10;;;;;;;6.35;100.00;92617.31;2092397;28;20028;-84
2022/04/26 06:39:35;;;;;;;7.32;6.30;;;;;;;6.17;100.00;92618.31;2112903;28;20019;-86
2022/04/26 06:40:36;;;;;;;7.78;7.00;;;;;;;6.20;100.00;92619.41;2107488;28;20021;-87
2022/04/26 06:41:37;;;;;;;7.60;6.65;;;;;;;6.19;100.00;92629.28;2082983;28;20037;-85
2022/04/26 06:42:38;;;;;;;7.95;7.25;;;;;;;6.22;100.00;92628.47;2087317;28;20013;-85
2022/04/26 06:43:39;;;;;;;8.18;7.40;;;;;;;6.15;100.00;92625.19;2080560;28;20088;-84
2022/04/26 06:44:40;;;;;;;8.90;8.00;;;;;;;6.16;100.00;92624.78;2087854;28;20052;-83
2022/04/26 06:45:44;;;;;;;11.10;10.00;;;;;;;6.18;100.00;92629.66;2087416;28;20393;-84
2022/04/26 06:46:45;;;;;;;15.27;9.27;;;;;;;6.16;100.00;92626.69;2090392;28;20051;-84
2022/04/26 06:47:48;;;;;;;9.20;8.30;;;;;;;6.17;100.00;92630.81;2104021;28;20024;-84
2022/04/26 06:48:49;;;;;;;8.88;8.07;;;;;;;6.17;100.00;92634.22;2106909;28;20073;-83
2022/04/26 06:49:50;;;;;;;10.32;7.28;;;;;;;6.16;100.00;92629.34;2087188;28;20032;-82
2022/04/26 06:50:53;;;;;;;9.80;8.80;;;;;;;6.16;100.00;92631.97;2087355;28;20036;-85
2022/04/26 06:51:54;;;;;;;9.35;7.78;;;;;;;6.07;100.00;92640.44;2096341;28;20605;-83
2022/04/26 06:52:55;;;;;;;8.80;7.90;;;;;;;6.07;100.00;92637.03;2102378;28;20031;-82
2022/04/26 06:53:55;;;;;;;7.90;7.10;;;;;;;6.06;100.00;92633.63;2103986;28;20012;-85
2022/04/26 06:54:56;;;;;;;7.20;6.50;;;;;;;6.09;100.00;92635.47;2104688;28;20080;-85
2022/04/26 06:55:57;;;;;;;6.47;5.97;;;;;;;6.15;100.00;92631.22;2095842;28;20020;-84
2022/04/26 06:56:58;;;;;;;8.07;6.97;;;;;;;6.19;100.00;92628.50;2096154;28;20176;-85
2022/04/26 06:57:59;;;;;;;8.10;7.30;;;;;;;6.23;100.00;92626.56;2089136;28;20016;-83
2022/04/26 06:59:00;;;;;;;9.50;7.28;;;;;;;6.17;100.00;92628.16;2096014;28;20764;-86
2022/04/26 07:00:01;;;;;;;8.02;7.22;;;;;;;6.05;100.00;92624.16;2097128;28;20035;-85
2022/04/26 07:01:03;;;;;;;7.78;6.97;;;;;;;6.22;100.00;92619.75;2097263;28;20035;-85
2022/04/26 07:02:04;;;;;;;7.55;6.85;;;;;;;6.14;100.00;92621.00;2088180;28;20056;-83
2022/04/26 07:03:05;;;;;;;7.03;5.85;;;;;;;6.54;100.00;92624.63;2090093;28;20020;-84
2022/04/26 07:04:07;;;;;;;6.95;6.35;;;;;;;6.48;100.00;92620.91;2097633;28;20020;-83
2022/04/26 07:05:10;;;;;;;8.43;6.35;;;;;;;6.35;100.00;92627.94;2095065;28;20039;-84
2022/04/26 07:06:12;;;;;;;8.07;6.63;;;;;;;6.27;100.00;92630.66;2096507;28;20029;-83
2022/04/26 07:07:13;;;;;;;6.80;6.20;;;;;;;6.37;100.00;92639.66;2088653;28;20024;-85
2022/04/26 07:08:14;;;;;;;7.15;6.45;;;;;;;6.41;100.00;92643.03;2085404;28;20024;-84
2022/04/26 07:09:15;;;;;;;7.63;6.88;;;;;;;6.39;100.00;92647.22;2082474;28;20048;-83
2022/04/26 07:10:16;;;;;;;7.18;6.57;;;;;;;6.52;100.00;92646.25;2088940;28;20832;-84
2022/04/26 07:11:17;;;;;;;9.18;6.95;;;;;;;6.43;100.00;92647.91;2098610;28;20090;-85
2022/04/26 07:12:19;;;;;;;7.57;6.93;;;;;;;6.44;100.00;92654.72;2113316;28;20020;-84
2022/04/26 07:13:21;;;;;;;7.10;6.40;;;;;;;6.57;100.00;92648.47;2096992;28;20036;-83
2022/04/26 07:14:22;;;;;;;7.28;6.40;;;;;;;6.54;100.00;92651.94;2096701;28;20028;-84
2022/04/26 07:15:24;;;;;;;7.55;6.57;;;;;;;6.56;100.00;92652.28;2091969;28;20032;-83
2022/04/26 07:16:25;;;;;;;7.45;6.57;;;;;;;6.58;100.00;92651.88;2097546;28;20031;-84
2022/04/26 07:17:26;;;;;;;7.82;6.32;;;;;;;6.33;100.00;92654.88;2097577;28;20086;-83
2022/04/26 07:18:27;;;;;;;7.10;6.40;;;;;;;6.31;100.00;92651.88;2089514;28;20100;-83
2022/04/26 07:19:28;;;;;;;8.23;6.85;;;;;;;6.26;100.00;92652.31;2089385;28;20052;-83
2022/04/26 07:20:30;;;;;;;7.93;6.93;;;;;;;6.26;100.00;92660.28;2089511;28;20139;-85
2022/04/26 07:21:31;;;;;;;9.23;6.95;;;;;;;6.25;100.00;92656.13;2081121;28;20052;-82
2022/04/26 07:22:32;;;;;;;8.23;6.68;;;;;;;6.23;100.00;92663.72;2102216;27;20012;-83
2022/04/26 07:23:40;;;;;;;7.05;6.43;;;;;;;6.27;100.00;92665.16;2105653;28;20060;-85
2022/04/26 07:24:41;;;;;;;10.07;7.45;;;;;;;6.25;100.00;92664.84;2090245;28;20072;-84
2022/04/26 07:25:42;;;;;;;7.55;6.85;;;;;;;6.29;100.00;92662.13;2089244;28;20024;-85
2022/04/26 07:26:43;;;;;;;7.97;6.55;;;;;;;6.48;100.00;92663.41;2088978;28;20025;-83
2022/04/26 07:27:44;;;;;;;7.35;6.28;;;;;;;6.38;100.00;92664.31;2081262;28;20736;-83
2022/04/26 07:28:45;;;;;;;7.03;6.03;;;;;;;6.63;100.00;92671.91;2089670;28;20028;-85
2022/04/26 07:29:50;;;;;;;5.90;5.32;;;;;;;6.46;100.00;92666.47;2095007;28;20032;-83
2022/04/26 07:30:52;;;;;;;8.55;5.38;;;;;;;6.90;100.00;92666.59;2098980;28;20024;-85
2022/04/26 07:31:53;;;;;;;6.78;5.65;;;;;;;6.49;100.00;92664.91;2106042;28;20054;-85
2022/04/26 07:34:24;;;;;;;6.65;6.05;;;;;;;6.42;100.00;92668.41;2100220;28;20025;-84
2022/04/26 07:35:26;;;;;;;5.85;5.25;;;;;;;6.55;100.00;92671.28;2098291;28;20020;-84
2022/04/26 07:36:27;;;;;;;6.82;5.60;;;;;;;6.44;100.00;92682.03;2089558;28;20388;-81
2022/04/26 07:37:28;;;;;;;6.20;5.38;;;;;;;6.67;100.00;92669.97;2096085;28;20137;-83
2022/04/26 07:38:29;;;;;;;8.05;5.28;;;;;;;6.56;100.00;92680.75;2113811;28;20031;-84
2022/04/26 07:39:33;;;;;;;6.18;5.57;;;;;;;6.61;100.00;92671.56;2106055;28;20550;-85
2022/04/26 07:40:34;;;;;;;7.10;5.53;;;;;;;6.55;100.00;92672.03;2098522;28;20025;-84
2022/04/26 07:41:35;;;;;;;7.07;5.45;;;;;;;6.65;100.00;92673.03;2113774;28;20023;-84
2022/04/26 07:42:36;;;;;;;8.25;5.68;;;;;;;6.74;100.00;92675.91;2105386;28;20024;-84
2022/04/26 07:43:37;;;;;;;7.25;6.03;;;;;;;6.79;100.00;92677.38;2097459;28;20028;-85
2022/04/26 07:44:39;;;;;;;6.50;5.82;;;;;;;6.68;100.00;92680.19;2089318;28;20149;-83
2022/04/26 07:45:42;;;;;;;6.32;5.72;;;;;;;6.90;100.00;92674.56;2097756;28;20049;-83
2022/04/26 07:46:46;;;;;;;6.32;5.15;;;;;;;6.80;100.00;92686.84;2089662;28;20394;-83
2022/04/26 07:47:47;;;;;;;5.90;5.22;;;;;;;6.82;100.00;92681.88;2098093;28;20029;-83
2022/04/26 07:48:48;;;;;;;8.05;5.65;;;;;;;6.96;100.00;92683.59;2103713;28;20722;-83
2022/04/26 07:49:50;;;;;;;6.85;5.50;;;;;;;6.80;100.00;92692.94;2096942;28;20135;-83
2022/04/26 07:50:52;;;;;;;6.00;5.32;;;;;;;7.19;100.00;92701.44;2098381;28;20117;-85
2022/04/26 07:51:54;;;;;;;5.53;5.03;;;;;;;7.19;100.00;92694.22;2096405;28;20029;-84
2022/04/26 07:52:55;;;;;;;6.47;5.00;;;;;;;7.14;100.00;92701.91;2104962;28;20023;-84
2022/04/26 07:53:56;;;;;;;6.50;5.65;;;;;;;7.30;100.00;92694.06;2098401;28;20024;-81
2022/04/26 07:54:57;;;;;;;5.88;5.28;;;;;;;7.15;100.00;92700.75;2088294;28;20405;-85
2022/04/26 07:55:58;;;;;;;9.50;6.05;;;;;;;7.09;100.00;92697.81;2096745;28;20020;-83
2022/04/26 07:56:59;;;;;;;9.23;6.82;;;;;;;7.30;100.00;92700.13;2095978;28;20412;-84
2022/04/26 07:58:00;;;;;;;5.25;4.75;;;;;;;7.30;100.00;92705.44;2097236;28;20021;-84
2022/04/26 07:59:03;;;;;;;5.30;4.90;;;;;;;7.36;100.00;92707.63;2110481;27;20019;-83
2022/04/26 08:00:06;;;;;;;7.10;5.00;;;;;;;7.39;100.00;92712.16;2110825;28;20871;-85
2022/04/26 08:01:07;;;;;;;5.38;4.88;;;;;;;7.54;100.00;92719.47;2103033;28;20044;-84
2022/04/26 08:02:12;;;;;;;6.20;5.13;;;;;;;7.46;100.00;92718.13;2095450;28;20048;-84
2022/04/26 08:03:14;;;;;;;5.05;4.55;;;;;;;7.70;100.00;92726.06;2090023;28;20685;-85
2022/04/26 08:04:14;;;;;;;5.35;4.85;;;;;;;7.70;100.00;92728.72;2097081;28;20490;-84
2022/04/26 08:05:16;;;;;;;5.90;5.10;;;;;;;7.58;100.00;92732.72;2104814;28;20084;-83
2022/04/26 08:06:16;;;;;;;7.43;5.20;;;;;;;7.65;100.00;92729.94;2112427;28;20023;-84
2022/04/26 08:07:17;;;;;;;5.60;4.90;;;;;;;7.44;100.00;92731.06;2105053;28;21042;-83
2022/04/26 08:08:19;;;;;;;6.07;5.15;;;;;;;7.59;100.00;92731.56;2096565;28;20035;-86
2022/04/26 08:09:19;;;;;;;5.90;5.25;;;;;;;7.56;100.00;92730.47;2089770;28;20025;-83
2022/04/26 08:10:20;;;;;;;7.13;5.20;;;;;;;7.58;100.00;92724.75;2087670;28;20025;-84
2022/04/26 08:11:22;;;;;;;5.82;5.13;;;;;;;7.74;100.00;92726.75;2094246;28;20151;-83
2022/04/26 08:12:23;;;;;;;6.65;4.75;;;;;;;8.12;100.00;92719.25;2102967;28;20020;-83
2022/04/26 08:13:24;;;;;;;7.25;4.85;;;;;;;8.01;100.00;92722.09;2104870;28;20024;-84
2022/04/26 08:14:26;;;;;;;6.22;5.10;;;;;;;8.17;100.00;92737.41;2095586;28;20021;-83
2022/04/26 08:15:27;;;;;;;6.38;5.47;;;;;;;8.14;100.00;92732.13;2088352;28;20025;-82
2022/04/26 08:16:28;;;;;;;6.50;4.82;;;;;;;8.09;100.00;92744.00;2083167;28;20025;-82
2022/04/26 08:17:29;;;;;;;7.50;5.45;;;;;;;8.30;100.00;92737.53;2093046;28;20036;-83
2022/04/26 08:18:30;;;;;;;6.00;5.13;;;;;;;8.27;100.00;92738.34;2096080;28;20556;-82
2022/04/26 08:19:31;;;;;;;8.57;5.13;;;;;;;8.22;100.00;92736.16;2088392;28;20035;-82
2022/04/26 08:20:33;;;;;;;8.45;5.93;;;;;;;8.40;100.00;92741.19;2100196;28;20019;-83
2022/04/26 08:21:34;;;;;;;6.05;5.45;;;;;;;8.46;100.00;92742.94;2095787;28;20024;-84
2022/04/26 08:22:34;;;;;;;5.57;5.07;;;;;;;8.66;100.00;92734.94;2080340;28;20017;-83
2022/04/26 08:27:22;;;;;;;7.68;4.80;;;;;;;8.78;100.00;92736.19;2096102;28;20029;-84
2022/04/26 08:27:39;;;;;;;5.25;4.53;;;;;;;8.76;98.33;92738.53;2107395;28;20022;-83
2022/04/26 08:28:40;;;;;;;6.65;4.43;;;;;;;8.43;92.12;92738.44;2110551;28;20027;-82
2022/04/26 08:29:41;;;;;;;7.72;4.60;;;;;;;8.20;100.00;92739.22;2101264;28;20146;-82
2022/04/26 08:30:42;;;;;;;4.80;4.38;;;;;;;8.34;100.00;92746.22;2079915;28;20530;-85
2022/04/26 08:31:44;;;;;;;5.00;4.50;;;;;;;8.55;100.00;92743.13;2082175;28;20131;-83
2022/04/26 08:32:46;;;;;;;4.88;4.32;;;;;;;8.56;100.00;92749.22;2092863;28;20024;-82
2022/04/26 08:33:48;;;;;;;4.72;4.32;;;;;;;8.36;100.00;92741.22;2103623;28;20467;-82